createdAt,value
2023-08-11T19:58:56.627Z,101163.00
2023-08-11T19:59:59.006Z,101168.41
2023-08-11T20:01:01.308Z,101171.50
2023-08-11T20:02:03.892Z,101165.09
2023-08-11T20:03:08.450Z,101167.19
2023-08-11T20:04:10.676Z,101174.47
2023-08-11T20:05:12.934Z,101172.63
2023-08-11T20:06:15.103Z,101173.63
2023-08-11T20:07:17.132Z,101164.81
2023-08-11T20:08:19.379Z,101164.81
2023-08-11T20:09:23.557Z,101169.41
2023-08-11T20:10:25.847Z,101167.53
2023-08-11T20:11:27.911Z,101171.34
2023-08-11T20:12:29.890Z,101167.91
2023-08-11T20:13:31.969Z,101168.78
2023-08-11T20:14:34.012Z,101170.00
2023-08-11T20:15:36.153Z,101168.25
2023-08-11T20:16:38.152Z,101168.41
2023-08-11T20:17:40.256Z,101164.84
2023-08-11T20:18:42.316Z,101166.66
2023-08-11T20:19:44.311Z,101166.66
2023-08-11T20:20:46.563Z,101166.66
2023-08-11T20:21:49.501Z,101172.06
2023-08-11T20:22:51.802Z,101178.63
2023-08-11T20:23:53.829Z,101165.78
2023-08-11T20:24:55.910Z,101177.63
2023-08-11T20:25:58.064Z,101175.91
2023-08-11T20:27:00.195Z,101175.41
2023-08-11T20:28:02.210Z,101174.66
2023-08-11T20:29:04.540Z,101173.03
2023-08-11T20:30:07.468Z,101174.25
2023-08-11T20:31:09.584Z,101176.97
2023-08-11T20:32:11.727Z,101173.50
2023-08-11T20:33:13.763Z,101181.53
2023-08-11T20:34:15.990Z,101176.34
2023-08-11T20:35:18.376Z,101177.44
2023-08-11T20:36:20.401Z,101178.44
2023-08-11T20:37:22.499Z,101177.69
2023-08-11T20:38:24.591Z,101174.84
2023-08-11T20:39:27.440Z,101171.41
2023-08-11T20:40:29.536Z,101177.69
2023-08-11T20:41:31.566Z,101173.97
2023-08-11T20:42:35.093Z,101177.78
2023-08-11T20:43:37.199Z,101178.78
2023-08-11T20:44:39.278Z,101180.72
2023-08-11T20:45:41.344Z,101176.16
2023-08-11T20:46:43.588Z,101175.31
2023-08-11T20:47:45.710Z,101183.81
2023-08-11T20:48:47.825Z,101183.81
2023-08-11T20:49:50.078Z,101178.50
2023-08-11T20:50:52.725Z,101176.78
2023-08-11T20:51:57.055Z,101180.34
2023-08-11T20:52:59.175Z,101188.59
2023-08-11T20:54:01.137Z,101190.44
2023-08-11T20:55:03.741Z,101191.66
2023-08-11T20:56:06.157Z,101192.75
2023-08-11T20:57:10.004Z,101189.28
2023-08-11T20:58:12.290Z,101197.59
2023-08-11T20:59:14.314Z,101197.75
2023-08-11T21:00:16.659Z,101194.41
2023-08-11T21:01:18.822Z,101186.28
2023-08-11T21:02:20.851Z,101193.63
2023-08-11T21:03:22.949Z,101194.72
2023-08-11T21:04:25.162Z,101193.88
2023-08-11T21:05:27.260Z,101191.41
2023-08-11T21:06:32.173Z,101197.81
2023-08-11T21:07:34.382Z,101195.19
2023-08-11T21:08:36.430Z,101195.31
2023-08-11T21:09:38.462Z,101191.94
2023-08-11T21:10:46.705Z,101198.50
2023-08-11T21:11:49.348Z,101198.59
2023-08-11T21:12:52.065Z,101196.97
2023-08-11T21:13:56.006Z,101193.53
2023-08-11T21:14:58.035Z,101191.78
2023-08-11T21:16:00.047Z,101198.28
2023-08-11T21:17:03.640Z,101192.88
2023-08-11T21:18:07.278Z,101197.44
2023-08-11T21:19:09.335Z,101195.47
2023-08-11T21:20:11.831Z,101198.94
2023-08-11T21:21:13.993Z,101197.19
2023-08-11T21:22:16.137Z,101203.69
2023-08-11T21:23:20.387Z,101200.59
2023-08-11T21:24:22.618Z,101201.47
2023-08-11T21:25:24.690Z,101191.41
2023-08-11T21:26:26.871Z,101198.66
2023-08-11T21:27:29.250Z,101198.91
2023-08-11T21:28:31.275Z,101191.94
2023-08-11T21:29:33.340Z,101193.16
2023-08-11T21:30:35.538Z,101199.44
2023-08-11T21:31:37.579Z,101193.31
2023-08-11T21:32:39.718Z,101185.19
2023-08-11T21:33:41.812Z,101182.69
2023-08-11T21:34:43.919Z,101186.59
2023-08-11T21:35:45.948Z,101179.69
2023-08-11T21:36:47.955Z,101191.47
2023-08-11T21:37:50.421Z,101187.28
2023-08-11T21:38:52.421Z,101186.66
2023-08-11T21:39:54.429Z,101187.97
2023-08-11T21:40:56.890Z,101188.41
2023-08-11T21:41:58.877Z,101196.22
2023-08-11T21:43:01.053Z,101200.13
2023-08-11T21:44:04.061Z,101186.88
2023-08-11T21:45:06.704Z,101191.78
2023-08-11T21:46:08.720Z,101190.16
2023-08-11T21:47:11.093Z,101192.09
2023-08-11T21:48:13.462Z,101186.91
2023-08-11T21:49:15.548Z,101187.03
2023-08-11T21:50:17.589Z,101185.63
2023-08-11T21:51:19.760Z,101186.59
2023-08-11T21:52:21.806Z,101184.09
2023-08-11T21:53:24.174Z,101184.09
2023-08-11T21:54:26.390Z,101181.38
2023-08-11T21:55:28.349Z,101178.69
2023-08-11T21:56:30.529Z,101186.81
2023-08-11T21:57:32.870Z,101177.41
2023-08-11T21:58:35.456Z,101172.00
2023-08-11T21:59:42.200Z,101182.81
2023-08-11T22:00:45.175Z,101176.63
2023-08-11T22:01:47.343Z,101180.56
2023-08-11T22:02:49.366Z,101175.34
2023-08-11T22:03:51.469Z,101172.75
2023-08-11T22:04:53.512Z,101180.22
2023-08-11T22:05:55.786Z,101173.31
2023-08-11T22:06:57.978Z,101177.19
2023-08-11T22:08:00.089Z,101184.56
2023-08-11T22:09:04.101Z,101175.69
2023-08-11T22:10:06.587Z,101178.50
2023-08-11T22:11:15.688Z,101175.69
2023-08-11T22:12:24.602Z,101179.16
2023-08-11T22:13:26.692Z,101175.69
2023-08-11T22:14:28.824Z,101184.78
2023-08-11T22:15:30.883Z,101183.03
2023-08-11T22:16:34.544Z,101180.44
2023-08-11T22:17:36.665Z,101179.78
2023-08-11T22:18:38.721Z,101179.03
2023-08-11T22:19:46.864Z,101187.34
2023-08-11T22:20:48.934Z,101184.72
2023-08-11T22:21:51.855Z,101187.66
2023-08-11T22:22:53.828Z,101182.38
2023-08-11T22:23:55.939Z,101190.47
2023-08-11T22:25:01.646Z,101186.91
2023-08-11T22:26:03.772Z,101188.00
2023-08-11T22:27:06.096Z,101186.25
2023-08-11T22:28:08.424Z,101186.41
2023-08-11T22:29:10.404Z,101188.38
2023-08-11T22:30:13.698Z,101188.59
2023-08-11T22:31:15.874Z,101187.81
2023-08-11T22:32:17.905Z,101187.16
2023-08-11T22:33:20.410Z,101183.59
2023-08-11T22:34:22.434Z,101189.00
2023-08-11T22:35:24.893Z,101190.16
2023-08-11T22:36:27.009Z,101194.84
2023-08-11T22:37:29.081Z,101184.25
2023-08-11T22:38:31.127Z,101196.13
2023-08-11T22:39:33.075Z,101199.88
2023-08-11T22:40:35.162Z,101201.06
2023-08-11T22:41:37.344Z,101195.88
2023-08-11T22:42:39.383Z,101197.03
2023-08-11T22:43:41.429Z,101196.94
2023-08-11T22:44:43.507Z,101197.81
2023-08-11T22:45:45.856Z,101192.41
2023-08-11T22:46:48.248Z,101194.13
2023-08-11T22:47:51.347Z,101193.19
2023-08-11T22:48:53.457Z,101189.59
2023-08-11T22:49:56.848Z,101200.31
2023-08-11T22:50:58.969Z,101197.59
2023-08-11T22:52:00.980Z,101200.19
2023-08-11T22:53:04.278Z,101195.75
2023-08-11T22:54:06.392Z,101198.56
2023-08-11T22:55:09.513Z,101199.72
2023-08-11T22:56:11.644Z,101201.69
2023-08-11T22:57:13.974Z,101198.22
2023-08-11T22:58:16.327Z,101202.56
2023-08-11T22:59:20.966Z,101197.03
2023-08-11T23:00:23.073Z,101203.28
2023-08-11T23:01:25.327Z,101200.59
2023-08-11T23:02:27.408Z,101204.28
2023-08-11T23:03:29.646Z,101204.38
2023-08-11T23:04:31.719Z,101199.00
2023-08-11T23:05:34.252Z,101200.72
2023-08-11T23:06:36.296Z,101203.41
2023-08-11T23:07:41.815Z,101199.72
2023-08-11T23:08:43.911Z,101201.69
2023-08-11T23:09:45.900Z,101194.75
2023-08-11T23:10:48.352Z,101194.09
2023-08-11T23:11:50.412Z,101200.47
2023-08-11T23:12:52.641Z,101196.00
2023-08-11T23:13:54.663Z,101193.44
2023-08-11T23:14:57.308Z,101202.47
2023-08-11T23:16:01.095Z,101194.50
2023-08-11T23:17:03.001Z,101203.25
2023-08-11T23:18:05.498Z,101211.56
2023-08-11T23:19:07.630Z,101203.78
2023-08-11T23:20:10.439Z,101206.66
2023-08-11T23:21:12.601Z,101209.34
2023-08-11T23:22:14.671Z,101206.78
2023-08-11T23:23:16.794Z,101206.78
2023-08-11T23:24:19.130Z,101206.56
2023-08-11T23:25:21.241Z,101214.59
2023-08-11T23:26:23.301Z,101212.81
2023-08-11T23:27:31.887Z,101210.59
2023-08-11T23:28:34.186Z,101216.09
2023-08-11T23:29:36.276Z,101217.28
2023-08-11T23:30:38.281Z,101221.25
2023-08-11T23:31:42.898Z,101221.44
2023-08-11T23:32:45.494Z,101216.25
2023-08-11T23:33:47.825Z,101215.56
2023-08-11T23:34:49.801Z,101214.69
2023-08-11T23:35:51.856Z,101219.34
2023-08-11T23:36:53.856Z,101207.00
2023-08-11T23:37:55.923Z,101217.03
2023-08-11T23:38:58.031Z,101217.09
2023-08-11T23:40:00.191Z,101217.19
2023-08-11T23:41:02.167Z,101222.78
2023-08-11T23:42:05.437Z,101221.94
2023-08-11T23:43:07.911Z,101217.59
2023-08-11T23:44:10.007Z,101228.88
2023-08-11T23:45:13.385Z,101226.25
2023-08-11T23:46:15.779Z,101227.31
2023-08-11T23:47:18.312Z,101225.81
2023-08-11T23:48:20.660Z,101226.00
2023-08-11T23:49:22.798Z,101227.16
2023-08-11T23:50:25.106Z,101224.56
2023-08-11T23:51:28.615Z,101216.53
2023-08-11T23:52:31.286Z,101224.75
2023-08-11T23:53:33.279Z,101228.50
2023-08-11T23:54:35.481Z,101223.31
2023-08-11T23:55:38.193Z,101225.22
2023-08-11T23:56:40.254Z,101218.31
2023-08-11T23:57:42.856Z,101220.34
2023-08-11T23:58:45.029Z,101219.75
2023-08-11T23:59:47.082Z,101222.56
